Jean-pierre A — TCRF4 — position and weather

sailwx.info

Track history (hours):
 
Tides and Currents Weather Stations Pressure Air Temp Water Temp Dewpoint Dewpoint Depression Visibility Wind Speed Wind Dir Waves Ship Positions

Jean-pierre A

Last reported at 2017-Dec-11 16:50 UTC. Time now 2017-Dec-14 00:43 UTC.
Position N 40°25' E 029°05'.

Length 184 m; draft 8.6 m.

Type: Ship (hazmat cat A). MMSI: 271001063.

Date/timePositionNaut miles runAvg speedWind from/ knotsBaromVisibWave heightAir tempDewpointWater temp
2017-Dec-11 16:50N 40°25' E 029°05'0 0.0
2017-Dec-11 16:26N 40°25' E 029°05'0 0.0
2017-Dec-11 10:17N 40°25' E 029°05'0 0.0
2017-Dec-11 06:52N 40°25' E 029°05'0 0.0
2017-Dec-11 06:22N 40°25' E 029°05'0 0.0
2017-Dec-11 01:01N 40°25' E 029°05'0 0.0
2017-Dec-11 00:55N 40°25' E 029°05'0 0.0
2017-Dec-11 00:25N 40°25' E 029°05'0 0.0
2017-Dec-10 23:49N 40°25' E 029°05'0 0.0
2017-Dec-10 21:39N 40°25' E 029°05'0 1.0
2017-Dec-10 21:29N 40°25' E 029°05'2 4.4
2017-Dec-10 21:00N 40°25' E 029°02'15 5.3
2017-Dec-10 18:06N 40°38' E 028°50'115.3
2017-Dec-10 18:00N 40°39' E 028°51'714.8
2017-Dec-10 17:30N 40°44' E 028°58'814.9
2017-Dec-10 17:00N 40°44' E 029°08'714.9
2017-Dec-10 16:30N 40°44' E 029°18'4 7.0
2017-Dec-10 15:58N 40°45' E 029°23'611.7
2017-Dec-10 15:30N 40°45' E 029°30'712.4
2017-Dec-10 14:54N 40°45' E 029°40'8 0.3
2017-Dec-09 13:34N 40°45' E 029°30'110.2
2017-Dec-09 13:30N 40°45' E 029°29'612.5
2017-Dec-09 13:00N 40°43' E 029°21'5 9.9
2017-Dec-09 12:30N 40°43' E 029°15'815.2
2017-Dec-09 12:00N 40°44' E 029°05'815.0
2017-Dec-09 11:30N 40°45' E 028°55'714.9
2017-Dec-09 11:00N 40°48' E 028°46'  
2017-Dec-03 17:00N 33°19' E 033°12'1316.3
2017-Dec-03 16:12N 33°08' E 033°20'416.5
2017-Dec-03 15:59N 33°05' E 033°22'1016.6
2017-Dec-03 15:25N 32°57' E 033°29'1416.6
2017-Dec-03 14:35N 32°45' E 033°37'116.6
2017-Dec-03 14:30N 32°44' E 033°38'1116.5
2017-Dec-03 13:51N 32°35' E 033°45'816.5
2017-Dec-03 13:23N 32°28' E 033°50'5612.8
2017-Dec-03 09:01N 31°50' E 034°38'0 6.5
2017-Dec-03 09:00N 31°50' E 034°38'0 0.9
2017-Dec-03 08:29N 31°50' E 034°39'0 0.0
2017-Dec-03 07:59N 31°50' E 034°39'12 0.3
2017-Dec-01 22:13N 31°59' E 034°29'314.2
2017-Dec-01 22:00N 32°02' E 034°30'714.5
2017-Dec-01 21:31N 32°09' E 034°33'714.5
2017-Dec-01 21:01N 32°15' E 034°35'714.4
2017-Dec-01 20:30N 32°22' E 034°38'714.1
2017-Dec-01 20:01N 32°29' E 034°40'713.9
2017-Dec-01 19:31N 32°36' E 034°43'713.7
2017-Dec-01 19:01N 32°42' E 034°45'714.1
2017-Dec-01 18:31N 32°49' E 034°48'611.8
2017-Dec-01 18:00N 32°53' E 034°53'  
Track history (hours):
 
Tides and Currents Weather Stations Pressure Air Temp Water Temp Dewpoint Dewpoint Depression Visibility Wind Speed Wind Dir Waves Ship Positions

Jean-pierre A

Last reported at 2017-Dec-11 16:50 UTC. Time now 2017-Dec-14 00:43 UTC.
Position N 40°25' E 029°05'.

Length 184 m; draft 8.6 m.

Type: Ship (hazmat cat A). MMSI: 271001063.

Date/timePositionNaut miles runAvg speedWind from/ knotsBaromVisibWave heightAir tempDewpointWater temp
2017-Dec-11 16:50N 40°25' E 029°05'0 0.0
2017-Dec-11 16:26N 40°25' E 029°05'0 0.0
2017-Dec-11 10:17N 40°25' E 029°05'0 0.0
2017-Dec-11 06:52N 40°25' E 029°05'0 0.0
2017-Dec-11 06:22N 40°25' E 029°05'0 0.0
2017-Dec-11 01:01N 40°25' E 029°05'0 0.0
2017-Dec-11 00:55N 40°25' E 029°05'0 0.0
2017-Dec-11 00:25N 40°25' E 029°05'0 0.0
2017-Dec-10 23:49N 40°25' E 029°05'0 0.0
2017-Dec-10 21:39N 40°25' E 029°05'0 1.0
2017-Dec-10 21:29N 40°25' E 029°05'2 4.4
2017-Dec-10 21:00N 40°25' E 029°02'15 5.3
2017-Dec-10 18:06N 40°38' E 028°50'115.3
2017-Dec-10 18:00N 40°39' E 028°51'714.8
2017-Dec-10 17:30N 40°44' E 028°58'814.9
2017-Dec-10 17:00N 40°44' E 029°08'714.9
2017-Dec-10 16:30N 40°44' E 029°18'4 7.0
2017-Dec-10 15:58N 40°45' E 029°23'611.7
2017-Dec-10 15:30N 40°45' E 029°30'712.4
2017-Dec-10 14:54N 40°45' E 029°40'8 0.3
2017-Dec-09 13:34N 40°45' E 029°30'110.2
2017-Dec-09 13:30N 40°45' E 029°29'612.5
2017-Dec-09 13:00N 40°43' E 029°21'5 9.9
2017-Dec-09 12:30N 40°43' E 029°15'815.2
2017-Dec-09 12:00N 40°44' E 029°05'815.0
2017-Dec-09 11:30N 40°45' E 028°55'714.9
2017-Dec-09 11:00N 40°48' E 028°46'  
2017-Dec-03 17:00N 33°19' E 033°12'1316.3
2017-Dec-03 16:12N 33°08' E 033°20'416.5
2017-Dec-03 15:59N 33°05' E 033°22'1016.6
2017-Dec-03 15:25N 32°57' E 033°29'1416.6
2017-Dec-03 14:35N 32°45' E 033°37'116.6
2017-Dec-03 14:30N 32°44' E 033°38'1116.5
2017-Dec-03 13:51N 32°35' E 033°45'816.5
2017-Dec-03 13:23N 32°28' E 033°50'5612.8
2017-Dec-03 09:01N 31°50' E 034°38'0 6.5
2017-Dec-03 09:00N 31°50' E 034°38'0 0.9
2017-Dec-03 08:29N 31°50' E 034°39'0 0.0
2017-Dec-03 07:59N 31°50' E 034°39'12 0.3
2017-Dec-01 22:13N 31°59' E 034°29'314.2
2017-Dec-01 22:00N 32°02' E 034°30'714.5
2017-Dec-01 21:31N 32°09' E 034°33'714.5
2017-Dec-01 21:01N 32°15' E 034°35'714.4
2017-Dec-01 20:30N 32°22' E 034°38'714.1
2017-Dec-01 20:01N 32°29' E 034°40'713.9
2017-Dec-01 19:31N 32°36' E 034°43'713.7
2017-Dec-01 19:01N 32°42' E 034°45'714.1
2017-Dec-01 18:31N 32°49' E 034°48'611.8
2017-Dec-01 18:00N 32°53' E 034°53'  

Dump ship's entire track history